sensor_id;sensor_type;location;lat;lon;timestamp;temperature;humidity
4183;DHT22;2105;52.300;9.182;2023-12-14T00:00:27;5.10;99.90
4183;DHT22;2105;52.300;9.182;2023-12-14T00:02:54;5.00;99.90
4183;DHT22;2105;52.300;9.182;2023-12-14T00:05:21;5.00;99.90
4183;DHT22;2105;52.300;9.182;2023-12-14T00:07:47;4.90;99.90
4183;DHT22;2105;52.300;9.182;2023-12-14T00:10:14;5.00;99.90
4183;DHT22;2105;52.300;9.182;2023-12-14T00:12:43;5.00;99.90
4183;DHT22;2105;52.300;9.182;2023-12-14T00:15:10;5.00;99.90
4183;DHT22;2105;52.300;9.182;2023-12-14T00:17:38;5.00;99.90
4183;DHT22;2105;52.300;9.182;2023-12-14T00:20:06;5.00;99.90
4183;DHT22;2105;52.300;9.182;2023-12-14T00:22:33;4.90;99.90
4183;DHT22;2105;52.300;9.182;2023-12-14T00:25:00;5.00;99.90
4183;DHT22;2105;52.300;9.182;2023-12-14T00:27:26;5.00;99.90
4183;DHT22;2105;52.300;9.182;2023-12-14T00:29:53;5.00;99.90
4183;DHT22;2105;52.300;9.182;2023-12-14T00:32:20;5.00;99.90
4183;DHT22;2105;52.300;9.182;2023-12-14T00:34:48;5.00;99.90
4183;DHT22;2105;52.300;9.182;2023-12-14T00:37:14;5.00;99.90
4183;DHT22;2105;52.300;9.182;2023-12-14T00:39:41;4.90;99.90
4183;DHT22;2105;52.300;9.182;2023-12-14T00:42:08;4.90;99.90
4183;DHT22;2105;52.300;9.182;2023-12-14T00:44:34;5.00;99.90
4183;DHT22;2105;52.300;9.182;2023-12-14T00:47:01;4.80;99.90
4183;DHT22;2105;52.300;9.182;2023-12-14T00:49:28;4.80;99.90
4183;DHT22;2105;52.300;9.182;2023-12-14T00:51:56;4.80;99.90
4183;DHT22;2105;52.300;9.182;2023-12-14T00:54:24;4.80;99.90
4183;DHT22;2105;52.300;9.182;2023-12-14T00:56:50;4.80;99.90
4183;DHT22;2105;52.300;9.182;2023-12-14T00:59:17;4.70;99.90
4183;DHT22;2105;52.300;9.182;2023-12-14T01:01:44;4.70;99.90
4183;DHT22;2105;52.300;9.182;2023-12-14T01:04:10;4.80;99.90
4183;DHT22;2105;52.300;9.182;2023-12-14T01:06:37;4.80;99.90
4183;DHT22;2105;52.300;9.182;2023-12-14T01:09:05;4.70;99.90
4183;DHT22;2105;52.300;9.182;2023-12-14T01:11:33;4.70;99.90
4183;DHT22;2105;52.300;9.182;2023-12-14T01:14:00;4.70;99.90
4183;DHT22;2105;52.300;9.182;2023-12-14T01:16:27;4.70;99.90
4183;DHT22;2105;52.300;9.182;2023-12-14T01:18:53;4.80;99.90
4183;DHT22;2105;52.300;9.182;2023-12-14T01:21:20;4.80;99.90
4183;DHT22;2105;52.300;9.182;2023-12-14T01:23:47;4.70;99.90
4183;DHT22;2105;52.300;9.182;2023-12-14T01:26:15;4.80;99.90
4183;DHT22;2105;52.300;9.182;2023-12-14T01:28:43;4.80;99.90
4183;DHT22;2105;52.300;9.182;2023-12-14T01:31:10;4.80;99.90
4183;DHT22;2105;52.300;9.182;2023-12-14T01:33:37;4.80;99.90
4183;DHT22;2105;52.300;9.182;2023-12-14T01:36:04;4.70;99.90
4183;DHT22;2105;52.300;9.182;2023-12-14T01:38:31;4.70;99.90
4183;DHT22;2105;52.300;9.182;2023-12-14T01:40:57;4.70;99.90
4183;DHT22;2105;52.300;9.182;2023-12-14T01:43:26;4.70;99.90
4183;DHT22;2105;52.300;9.182;2023-12-14T01:45:53;4.70;99.90
4183;DHT22;2105;52.300;9.182;2023-12-14T01:48:19;4.60;99.90
4183;DHT22;2105;52.300;9.182;2023-12-14T01:50:46;4.70;99.90
4183;DHT22;2105;52.300;9.182;2023-12-14T01:53:13;4.60;99.90
4183;DHT22;2105;52.300;9.182;2023-12-14T01:55:40;4.60;99.90
4183;DHT22;2105;52.300;9.182;2023-12-14T01:58:07;4.70;99.90
4183;DHT22;2105;52.300;9.182;2023-12-14T02:00:39;4.60;99.90
4183;DHT22;2105;52.300;9.182;2023-12-14T02:03:07;4.60;99.90
4183;DHT22;2105;52.300;9.182;2023-12-14T02:05:34;4.60;99.90
4183;DHT22;2105;52.300;9.182;2023-12-14T02:08:00;4.60;99.90
4183;DHT22;2105;52.300;9.182;2023-12-14T02:10:27;4.60;99.90
4183;DHT22;2105;52.300;9.182;2023-12-14T02:12:54;4.60;99.90
4183;DHT22;2105;52.300;9.182;2023-12-14T02:15:20;4.60;99.90
4183;DHT22;2105;52.300;9.182;2023-12-14T02:17:48;4.60;99.90
4183;DHT22;2105;52.300;9.182;2023-12-14T02:20:15;4.50;99.90
4183;DHT22;2105;52.300;9.182;2023-12-14T02:22:50;4.50;99.90
4183;DHT22;2105;52.300;9.182;2023-12-14T02:25:17;4.50;99.90
4183;DHT22;2105;52.300;9.182;2023-12-14T02:27:44;4.60;99.90
4183;DHT22;2105;52.300;9.182;2023-12-14T02:30:11;4.60;99.90
4183;DHT22;2105;52.300;9.182;2023-12-14T02:32:38;4.60;99.90
4183;DHT22;2105;52.300;9.182;2023-12-14T02:35:06;4.50;99.90
4183;DHT22;2105;52.300;9.182;2023-12-14T02:37:33;4.50;99.90
4183;DHT22;2105;52.300;9.182;2023-12-14T02:40:05;4.50;99.90
4183;DHT22;2105;52.300;9.182;2023-12-14T02:42:32;4.60;99.90
4183;DHT22;2105;52.300;9.182;2023-12-14T02:44:59;4.60;99.90
4183;DHT22;2105;52.300;9.182;2023-12-14T02:47:27;4.60;99.90
4183;DHT22;2105;52.300;9.182;2023-12-14T02:49:54;4.70;99.90
4183;DHT22;2105;52.300;9.182;2023-12-14T02:52:20;4.70;99.90
4183;DHT22;2105;52.300;9.182;2023-12-14T02:54:47;4.60;99.90
4183;DHT22;2105;52.300;9.182;2023-12-14T02:57:15;4.60;99.90
4183;DHT22;2105;52.300;9.182;2023-12-14T02:59:42;4.60;99.90
4183;DHT22;2105;52.300;9.182;2023-12-14T03:02:08;4.60;99.90
4183;DHT22;2105;52.300;9.182;2023-12-14T03:04:37;4.60;99.90
4183;DHT22;2105;52.300;9.182;2023-12-14T03:07:04;4.60;99.90
4183;DHT22;2105;52.300;9.182;2023-12-14T03:09:31;4.70;99.90
4183;DHT22;2105;52.300;9.182;2023-12-14T03:11:57;4.70;99.90
4183;DHT22;2105;52.300;9.182;2023-12-14T03:14:32;4.80;99.90
4183;DHT22;2105;52.300;9.182;2023-12-14T03:16:59;4.80;99.90
4183;DHT22;2105;52.300;9.182;2023-12-14T03:19:26;4.80;99.90
4183;DHT22;2105;52.300;9.182;2023-12-14T03:21:52;4.80;99.90
4183;DHT22;2105;52.300;9.182;2023-12-14T03:24:19;4.80;99.90
4183;DHT22;2105;52.300;9.182;2023-12-14T03:26:46;4.80;99.90
4183;DHT22;2105;52.300;9.182;2023-12-14T03:29:13;4.80;99.90
4183;DHT22;2105;52.300;9.182;2023-12-14T03:31:41;4.80;99.90
4183;DHT22;2105;52.300;9.182;2023-12-14T03:34:07;4.80;99.90
4183;DHT22;2105;52.300;9.182;2023-12-14T03:36:34;4.70;99.90
4183;DHT22;2105;52.300;9.182;2023-12-14T03:39:01;4.70;99.90
4183;DHT22;2105;52.300;9.182;2023-12-14T03:41:27;4.60;99.90
4183;DHT22;2105;52.300;9.182;2023-12-14T03:43:54;4.70;99.90
4183;DHT22;2105;52.300;9.182;2023-12-14T03:46:21;4.60;99.90
4183;DHT22;2105;52.300;9.182;2023-12-14T03:48:49;4.70;99.90
4183;DHT22;2105;52.300;9.182;2023-12-14T03:51:17;4.70;99.90
4183;DHT22;2105;52.300;9.182;2023-12-14T03:53:44;4.70;99.90
4183;DHT22;2105;52.300;9.182;2023-12-14T03:56:11;4.60;99.90
4183;DHT22;2105;52.300;9.182;2023-12-14T03:58:38;4.60;99.90
4183;DHT22;2105;52.300;9.182;2023-12-14T04:01:04;4.60;99.90
4183;DHT22;2105;52.300;9.182;2023-12-14T04:03:31;4.50;99.90
4183;DHT22;2105;52.300;9.182;2023-12-14T04:06:00;4.60;99.90
4183;DHT22;2105;52.300;9.182;2023-12-14T04:08:26;4.60;99.90
4183;DHT22;2105;52.300;9.182;2023-12-14T04:10:53;4.50;99.90
4183;DHT22;2105;52.300;9.182;2023-12-14T04:13:19;4.60;99.90
4183;DHT22;2105;52.300;9.182;2023-12-14T04:15:46;4.60;99.90
4183;DHT22;2105;52.300;9.182;2023-12-14T04:18:13;4.60;99.90
4183;DHT22;2105;52.300;9.182;2023-12-14T04:20:39;4.60;99.90
4183;DHT22;2105;52.300;9.182;2023-12-14T04:23:08;4.70;99.90
4183;DHT22;2105;52.300;9.182;2023-12-14T04:25:34;4.70;99.90
4183;DHT22;2105;52.300;9.182;2023-12-14T04:28:01;4.70;99.90
4183;DHT22;2105;52.300;9.182;2023-12-14T04:30:27;4.70;99.90
4183;DHT22;2105;52.300;9.182;2023-12-14T04:32:54;4.60;99.90
4183;DHT22;2105;52.300;9.182;2023-12-14T04:35:21;4.60;99.90
4183;DHT22;2105;52.300;9.182;2023-12-14T04:37:48;4.60;99.90
4183;DHT22;2105;52.300;9.182;2023-12-14T04:40:16;4.60;99.90
4183;DHT22;2105;52.300;9.182;2023-12-14T04:42:43;4.50;99.90
4183;DHT22;2105;52.300;9.182;2023-12-14T04:45:10;4.50;99.90
4183;DHT22;2105;52.300;9.182;2023-12-14T04:47:38;4.50;99.90
4183;DHT22;2105;52.300;9.182;2023-12-14T04:50:05;4.50;99.90
4183;DHT22;2105;52.300;9.182;2023-12-14T04:52:32;4.50;99.90
4183;DHT22;2105;52.300;9.182;2023-12-14T04:54:59;4.60;99.90
4183;DHT22;2105;52.300;9.182;2023-12-14T04:57:27;4.60;99.90
4183;DHT22;2105;52.300;9.182;2023-12-14T04:59:54;4.60;99.90
4183;DHT22;2105;52.300;9.182;2023-12-14T05:02:20;4.60;99.90
4183;DHT22;2105;52.300;9.182;2023-12-14T05:04:47;4.60;99.90
4183;DHT22;2105;52.300;9.182;2023-12-14T05:07:14;4.60;99.90
4183;DHT22;2105;52.300;9.182;2023-12-14T05:09:40;4.70;99.90
4183;DHT22;2105;52.300;9.182;2023-12-14T05:12:07;4.70;99.90
4183;DHT22;2105;52.300;9.182;2023-12-14T05:14:35;4.70;99.90
4183;DHT22;2105;52.300;9.182;2023-12-14T05:17:02;4.70;99.90
4183;DHT22;2105;52.300;9.182;2023-12-14T05:19:29;4.70;99.90
4183;DHT22;2105;52.300;9.182;2023-12-14T05:21:55;4.70;99.90
4183;DHT22;2105;52.300;9.182;2023-12-14T05:24:22;4.70;99.90
4183;DHT22;2105;52.300;9.182;2023-12-14T05:26:48;4.70;99.90
4183;DHT22;2105;52.300;9.182;2023-12-14T05:29:15;4.70;99.90
4183;DHT22;2105;52.300;9.182;2023-12-14T05:31:44;4.60;99.90
4183;DHT22;2105;52.300;9.182;2023-12-14T05:34:11;4.60;99.90
4183;DHT22;2105;52.300;9.182;2023-12-14T05:36:37;4.60;99.90
4183;DHT22;2105;52.300;9.182;2023-12-14T05:39:04;4.70;99.90
4183;DHT22;2105;52.300;9.182;2023-12-14T05:41:30;4.60;99.90
4183;DHT22;2105;52.300;9.182;2023-12-14T05:43:57;4.50;99.90
4183;DHT22;2105;52.300;9.182;2023-12-14T05:46:24;4.50;99.90
4183;DHT22;2105;52.300;9.182;2023-12-14T05:48:52;4.50;99.90
4183;DHT22;2105;52.300;9.182;2023-12-14T05:51:29;4.50;99.90
4183;DHT22;2105;52.300;9.182;2023-12-14T05:53:56;4.50;99.90
4183;DHT22;2105;52.300;9.182;2023-12-14T05:56:23;4.50;99.90
4183;DHT22;2105;52.300;9.182;2023-12-14T05:58:50;4.40;99.90
4183;DHT22;2105;52.300;9.182;2023-12-14T06:01:17;4.50;99.90
4183;DHT22;2105;52.300;9.182;2023-12-14T06:03:44;4.50;99.90
4183;DHT22;2105;52.300;9.182;2023-12-14T06:06:12;4.50;99.90
4183;DHT22;2105;52.300;9.182;2023-12-14T06:08:39;4.50;99.90
4183;DHT22;2105;52.300;9.182;2023-12-14T06:11:06;4.50;99.90
4183;DHT22;2105;52.300;9.182;2023-12-14T06:13:33;4.40;99.90
4183;DHT22;2105;52.300;9.182;2023-12-14T06:16:00;4.40;99.90
4183;DHT22;2105;52.300;9.182;2023-12-14T06:18:27;4.50;99.90
4183;DHT22;2105;52.300;9.182;2023-12-14T06:20:53;4.40;99.90
4183;DHT22;2105;52.300;9.182;2023-12-14T06:23:21;4.40;99.90
4183;DHT22;2105;52.300;9.182;2023-12-14T06:25:48;4.40;99.90
4183;DHT22;2105;52.300;9.182;2023-12-14T06:28:14;4.30;99.90
4183;DHT22;2105;52.300;9.182;2023-12-14T06:30:41;4.30;99.90
4183;DHT22;2105;52.300;9.182;2023-12-14T06:33:08;4.30;99.90
4183;DHT22;2105;52.300;9.182;2023-12-14T06:35:34;4.30;99.90
4183;DHT22;2105;52.300;9.182;2023-12-14T06:38:01;4.30;99.90
4183;DHT22;2105;52.300;9.182;2023-12-14T06:40:29;4.30;99.90
4183;DHT22;2105;52.300;9.182;2023-12-14T06:42:56;4.30;99.90
4183;DHT22;2105;52.300;9.182;2023-12-14T06:45:22;4.40;99.90
4183;DHT22;2105;52.300;9.182;2023-12-14T06:47:49;4.40;99.90
4183;DHT22;2105;52.300;9.182;2023-12-14T06:50:16;4.40;99.90
4183;DHT22;2105;52.300;9.182;2023-12-14T06:52:42;4.40;99.90
4183;DHT22;2105;52.300;9.182;2023-12-14T06:55:09;4.40;99.90
4183;DHT22;2105;52.300;9.182;2023-12-14T06:57:37;4.40;99.90
4183;DHT22;2105;52.300;9.182;2023-12-14T07:00:05;4.40;99.90
4183;DHT22;2105;52.300;9.182;2023-12-14T07:02:32;4.50;99.90
4183;DHT22;2105;52.300;9.182;2023-12-14T07:04:58;4.40;99.90
4183;DHT22;2105;52.300;9.182;2023-12-14T07:07:25;4.40;99.90
4183;DHT22;2105;52.300;9.182;2023-12-14T07:09:52;4.50;99.90
4183;DHT22;2105;52.300;9.182;2023-12-14T07:12:18;4.40;99.90
4183;DHT22;2105;52.300;9.182;2023-12-14T07:14:46;4.40;99.90
4183;DHT22;2105;52.300;9.182;2023-12-14T07:17:13;4.40;99.90
4183;DHT22;2105;52.300;9.182;2023-12-14T07:19:40;4.40;99.90
4183;DHT22;2105;52.300;9.182;2023-12-14T07:22:06;4.50;99.90
4183;DHT22;2105;52.300;9.182;2023-12-14T07:24:33;4.40;99.90
4183;DHT22;2105;52.300;9.182;2023-12-14T07:27:00;4.40;99.90
4183;DHT22;2105;52.300;9.182;2023-12-14T07:29:26;4.40;99.90
4183;DHT22;2105;52.300;9.182;2023-12-14T07:31:54;4.40;99.90
4183;DHT22;2105;52.300;9.182;2023-12-14T07:34:21;4.50;99.90
4183;DHT22;2105;52.300;9.182;2023-12-14T07:36:50;4.50;99.90
4183;DHT22;2105;52.300;9.182;2023-12-14T07:39:16;4.50;99.90
4183;DHT22;2105;52.300;9.182;2023-12-14T07:41:43;4.50;99.90
4183;DHT22;2105;52.300;9.182;2023-12-14T07:44:10;4.50;99.90
4183;DHT22;2105;52.300;9.182;2023-12-14T07:46:37;4.50;99.90
4183;DHT22;2105;52.300;9.182;2023-12-14T07:49:08;4.50;99.90
4183;DHT22;2105;52.300;9.182;2023-12-14T07:51:34;4.50;99.90
4183;DHT22;2105;52.300;9.182;2023-12-14T07:54:01;4.40;99.90
4183;DHT22;2105;52.300;9.182;2023-12-14T07:56:29;4.40;99.90
4183;DHT22;2105;52.300;9.182;2023-12-14T07:58:58;4.40;99.90
4183;DHT22;2105;52.300;9.182;2023-12-14T08:01:24;4.60;99.90
4183;DHT22;2105;52.300;9.182;2023-12-14T08:03:51;4.50;99.90
4183;DHT22;2105;52.300;9.182;2023-12-14T08:06:19;4.50;99.90
4183;DHT22;2105;52.300;9.182;2023-12-14T08:08:46;4.50;99.90
4183;DHT22;2105;52.300;9.182;2023-12-14T08:11:12;4.50;99.90
4183;DHT22;2105;52.300;9.182;2023-12-14T08:13:39;4.50;99.90
4183;DHT22;2105;52.300;9.182;2023-12-14T08:16:06;4.50;99.90
4183;DHT22;2105;52.300;9.182;2023-12-14T08:18:33;4.50;99.90
4183;DHT22;2105;52.300;9.182;2023-12-14T08:21:01;4.50;99.90
4183;DHT22;2105;52.300;9.182;2023-12-14T08:23:29;4.50;99.90
4183;DHT22;2105;52.300;9.182;2023-12-14T08:25:57;4.50;99.90
4183;DHT22;2105;52.300;9.182;2023-12-14T08:28:24;4.50;99.90
4183;DHT22;2105;52.300;9.182;2023-12-14T08:30:51;4.50;99.90
4183;DHT22;2105;52.300;9.182;2023-12-14T08:33:17;4.50;99.90
4183;DHT22;2105;52.300;9.182;2023-12-14T08:35:44;4.40;99.90
4183;DHT22;2105;52.300;9.182;2023-12-14T08:38:11;4.40;99.90
4183;DHT22;2105;52.300;9.182;2023-12-14T08:40:39;4.40;99.90
4183;DHT22;2105;52.300;9.182;2023-12-14T08:43:05;4.40;99.90
4183;DHT22;2105;52.300;9.182;2023-12-14T08:45:32;4.50;99.90
4183;DHT22;2105;52.300;9.182;2023-12-14T08:47:59;4.50;99.90
4183;DHT22;2105;52.300;9.182;2023-12-14T08:50:26;4.50;99.90
4183;DHT22;2105;52.300;9.182;2023-12-14T08:52:52;4.50;99.90
4183;DHT22;2105;52.300;9.182;2023-12-14T08:55:19;4.50;99.90
4183;DHT22;2105;52.300;9.182;2023-12-14T08:57:48;4.40;99.90
4183;DHT22;2105;52.300;9.182;2023-12-14T09:00:16;4.40;99.90
4183;DHT22;2105;52.300;9.182;2023-12-14T09:02:43;4.40;99.90
4183;DHT22;2105;52.300;9.182;2023-12-14T09:05:11;4.50;99.90
4183;DHT22;2105;52.300;9.182;2023-12-14T09:07:38;4.40;99.90
4183;DHT22;2105;52.300;9.182;2023-12-14T09:10:06;4.40;99.90
4183;DHT22;2105;52.300;9.182;2023-12-14T09:12:33;4.50;99.90
4183;DHT22;2105;52.300;9.182;2023-12-14T09:15:02;4.50;99.90
4183;DHT22;2105;52.300;9.182;2023-12-14T09:17:29;4.50;99.90
4183;DHT22;2105;52.300;9.182;2023-12-14T09:19:58;4.50;99.90
4183;DHT22;2105;52.300;9.182;2023-12-14T09:22:25;4.50;99.90
4183;DHT22;2105;52.300;9.182;2023-12-14T09:24:51;4.50;99.90
4183;DHT22;2105;52.300;9.182;2023-12-14T09:27:19;4.40;99.90
4183;DHT22;2105;52.300;9.182;2023-12-14T09:29:46;4.40;99.90
4183;DHT22;2105;52.300;9.182;2023-12-14T09:32:14;4.40;99.90
4183;DHT22;2105;52.300;9.182;2023-12-14T09:34:42;4.50;99.90
4183;DHT22;2105;52.300;9.182;2023-12-14T09:37:09;4.40;99.90
4183;DHT22;2105;52.300;9.182;2023-12-14T09:39:36;4.40;99.90
4183;DHT22;2105;52.300;9.182;2023-12-14T09:42:04;4.40;99.90
4183;DHT22;2105;52.300;9.182;2023-12-14T09:44:32;4.40;99.90
4183;DHT22;2105;52.300;9.182;2023-12-14T09:46:59;4.40;99.90
4183;DHT22;2105;52.300;9.182;2023-12-14T09:49:30;4.40;99.90
4183;DHT22;2105;52.300;9.182;2023-12-14T09:51:57;4.40;99.90
4183;DHT22;2105;52.300;9.182;2023-12-14T09:54:25;4.50;99.90
4183;DHT22;2105;52.300;9.182;2023-12-14T09:56:53;4.50;99.90
4183;DHT22;2105;52.300;9.182;2023-12-14T09:59:20;4.50;99.90
4183;DHT22;2105;52.300;9.182;2023-12-14T10:01:47;4.50;99.90
4183;DHT22;2105;52.300;9.182;2023-12-14T10:04:15;4.50;99.90
4183;DHT22;2105;52.300;9.182;2023-12-14T10:06:45;4.60;99.90
4183;DHT22;2105;52.300;9.182;2023-12-14T10:09:13;4.60;99.90
4183;DHT22;2105;52.300;9.182;2023-12-14T10:11:41;4.60;99.90
4183;DHT22;2105;52.300;9.182;2023-12-14T10:14:18;4.60;99.90
4183;DHT22;2105;52.300;9.182;2023-12-14T10:16:46;4.70;99.90
4183;DHT22;2105;52.300;9.182;2023-12-14T10:19:13;4.70;99.90
4183;DHT22;2105;52.300;9.182;2023-12-14T10:21:40;4.70;99.90
4183;DHT22;2105;52.300;9.182;2023-12-14T10:24:08;4.70;99.90
4183;DHT22;2105;52.300;9.182;2023-12-14T10:26:35;4.70;99.90
4183;DHT22;2105;52.300;9.182;2023-12-14T10:29:02;4.70;99.90
4183;DHT22;2105;52.300;9.182;2023-12-14T10:31:30;4.80;99.90
4183;DHT22;2105;52.300;9.182;2023-12-14T10:33:57;4.80;99.90
4183;DHT22;2105;52.300;9.182;2023-12-14T10:36:25;4.80;99.90
4183;DHT22;2105;52.300;9.182;2023-12-14T10:38:53;4.80;99.90
4183;DHT22;2105;52.300;9.182;2023-12-14T10:41:22;4.80;99.90
4183;DHT22;2105;52.300;9.182;2023-12-14T10:43:50;4.90;99.90
4183;DHT22;2105;52.300;9.182;2023-12-14T10:46:18;4.80;99.90
4183;DHT22;2105;52.300;9.182;2023-12-14T10:48:47;4.80;99.90
4183;DHT22;2105;52.300;9.182;2023-12-14T10:51:14;4.70;99.90
4183;DHT22;2105;52.300;9.182;2023-12-14T10:53:42;4.70;99.90
4183;DHT22;2105;52.300;9.182;2023-12-14T10:56:12;4.70;99.90
4183;DHT22;2105;52.300;9.182;2023-12-14T10:58:51;4.70;99.90
4183;DHT22;2105;52.300;9.182;2023-12-14T11:01:20;4.80;99.90
4183;DHT22;2105;52.300;9.182;2023-12-14T11:03:49;4.80;99.90
4183;DHT22;2105;52.300;9.182;2023-12-14T11:06:29;4.80;99.90
4183;DHT22;2105;52.300;9.182;2023-12-14T11:08:58;4.70;99.90
4183;DHT22;2105;52.300;9.182;2023-12-14T11:11:28;4.80;99.90
4183;DHT22;2105;52.300;9.182;2023-12-14T11:13:56;4.80;99.90
4183;DHT22;2105;52.300;9.182;2023-12-14T11:16:26;4.80;99.90
4183;DHT22;2105;52.300;9.182;2023-12-14T11:19:27;4.70;99.90
4183;DHT22;2105;52.300;9.182;2023-12-14T11:22:11;4.80;99.90
4183;DHT22;2105;52.300;9.182;2023-12-14T11:24:51;4.80;99.90
4183;DHT22;2105;52.300;9.182;2023-12-14T11:27:20;4.80;99.90
4183;DHT22;2105;52.300;9.182;2023-12-14T11:29:49;4.80;99.90
4183;DHT22;2105;52.300;9.182;2023-12-14T11:32:16;4.90;99.90
4183;DHT22;2105;52.300;9.182;2023-12-14T11:34:45;4.90;99.90
4183;DHT22;2105;52.300;9.182;2023-12-14T11:37:12;5.00;99.90
4183;DHT22;2105;52.300;9.182;2023-12-14T11:39:39;5.00;99.90
4183;DHT22;2105;52.300;9.182;2023-12-14T11:42:06;4.90;99.90
4183;DHT22;2105;52.300;9.182;2023-12-14T11:44:34;5.00;99.90
4183;DHT22;2105;52.300;9.182;2023-12-14T11:47:03;5.00;99.90
4183;DHT22;2105;52.300;9.182;2023-12-14T11:49:30;5.00;99.90
4183;DHT22;2105;52.300;9.182;2023-12-14T11:51:57;5.00;99.90
4183;DHT22;2105;52.300;9.182;2023-12-14T11:54:24;5.10;99.90
4183;DHT22;2105;52.300;9.182;2023-12-14T11:56:53;5.10;99.90
4183;DHT22;2105;52.300;9.182;2023-12-14T11:59:19;5.10;99.90
4183;DHT22;2105;52.300;9.182;2023-12-14T12:01:56;5.10;99.90
4183;DHT22;2105;52.300;9.182;2023-12-14T12:04:25;5.10;99.90
4183;DHT22;2105;52.300;9.182;2023-12-14T12:07:02;5.10;99.90
4183;DHT22;2105;52.300;9.182;2023-12-14T12:09:34;5.10;99.90
4183;DHT22;2105;52.300;9.182;2023-12-14T12:12:01;5.10;99.90
4183;DHT22;2105;52.300;9.182;2023-12-14T12:14:28;5.20;99.90
4183;DHT22;2105;52.300;9.182;2023-12-14T12:16:55;5.20;99.90
4183;DHT22;2105;52.300;9.182;2023-12-14T12:19:22;5.30;99.90
4183;DHT22;2105;52.300;9.182;2023-12-14T12:21:50;5.30;99.90
4183;DHT22;2105;52.300;9.182;2023-12-14T12:24:17;5.30;99.90
4183;DHT22;2105;52.300;9.182;2023-12-14T12:26:44;5.30;99.90
4183;DHT22;2105;52.300;9.182;2023-12-14T12:29:11;5.40;99.90
4183;DHT22;2105;52.300;9.182;2023-12-14T12:31:38;5.40;99.90
4183;DHT22;2105;52.300;9.182;2023-12-14T12:34:05;5.40;99.90
4183;DHT22;2105;52.300;9.182;2023-12-14T12:36:32;5.30;99.90
4183;DHT22;2105;52.300;9.182;2023-12-14T12:39:00;5.40;99.90
4183;DHT22;2105;52.300;9.182;2023-12-14T12:41:28;5.40;99.90
4183;DHT22;2105;52.300;9.182;2023-12-14T12:43:55;5.50;99.90
4183;DHT22;2105;52.300;9.182;2023-12-14T12:46:21;5.40;99.90
4183;DHT22;2105;52.300;9.182;2023-12-14T12:48:48;5.40;99.90
4183;DHT22;2105;52.300;9.182;2023-12-14T12:51:16;5.40;99.90
4183;DHT22;2105;52.300;9.182;2023-12-14T12:53:43;5.40;99.90
4183;DHT22;2105;52.300;9.182;2023-12-14T12:56:12;5.30;99.90
4183;DHT22;2105;52.300;9.182;2023-12-14T12:58:38;5.30;99.90
4183;DHT22;2105;52.300;9.182;2023-12-14T13:01:05;5.30;99.90
4183;DHT22;2105;52.300;9.182;2023-12-14T13:03:32;5.30;99.90
4183;DHT22;2105;52.300;9.182;2023-12-14T13:05:59;5.30;99.90
4183;DHT22;2105;52.300;9.182;2023-12-14T13:08:26;5.30;99.90
4183;DHT22;2105;52.300;9.182;2023-12-14T13:10:53;5.30;99.90
4183;DHT22;2105;52.300;9.182;2023-12-14T13:13:21;5.30;99.90
4183;DHT22;2105;52.300;9.182;2023-12-14T13:15:48;5.20;99.90
4183;DHT22;2105;52.300;9.182;2023-12-14T13:18:15;5.30;99.90
4183;DHT22;2105;52.300;9.182;2023-12-14T13:20:43;5.20;99.90
4183;DHT22;2105;52.300;9.182;2023-12-14T13:23:10;5.20;99.90
4183;DHT22;2105;52.300;9.182;2023-12-14T13:25:36;5.30;99.90
4183;DHT22;2105;52.300;9.182;2023-12-14T13:28:03;5.30;99.90
4183;DHT22;2105;52.300;9.182;2023-12-14T13:30:32;5.30;99.90
4183;DHT22;2105;52.300;9.182;2023-12-14T13:33:00;5.30;99.90
4183;DHT22;2105;52.300;9.182;2023-12-14T13:35:27;5.30;99.90
4183;DHT22;2105;52.300;9.182;2023-12-14T13:37:54;5.30;99.90
4183;DHT22;2105;52.300;9.182;2023-12-14T13:40:20;5.30;99.90
4183;DHT22;2105;52.300;9.182;2023-12-14T13:42:47;5.30;99.90
4183;DHT22;2105;52.300;9.182;2023-12-14T13:45:14;5.40;99.90
4183;DHT22;2105;52.300;9.182;2023-12-14T13:47:42;5.40;99.90
4183;DHT22;2105;52.300;9.182;2023-12-14T13:50:09;5.40;99.90
4183;DHT22;2105;52.300;9.182;2023-12-14T13:52:36;5.50;99.90
4183;DHT22;2105;52.300;9.182;2023-12-14T13:55:03;5.50;99.90
4183;DHT22;2105;52.300;9.182;2023-12-14T13:57:30;5.50;99.90
4183;DHT22;2105;52.300;9.182;2023-12-14T13:59:57;5.40;99.90
4183;DHT22;2105;52.300;9.182;2023-12-14T14:02:23;5.40;99.90
4183;DHT22;2105;52.300;9.182;2023-12-14T14:04:54;5.30;99.90
4183;DHT22;2105;52.300;9.182;2023-12-14T14:07:20;5.30;99.90
4183;DHT22;2105;52.300;9.182;2023-12-14T14:09:47;5.40;99.90
4183;DHT22;2105;52.300;9.182;2023-12-14T14:12:14;5.40;99.90
4183;DHT22;2105;52.300;9.182;2023-12-14T14:14:41;5.40;99.90
4183;DHT22;2105;52.300;9.182;2023-12-14T14:17:07;5.40;99.90
4183;DHT22;2105;52.300;9.182;2023-12-14T14:19:35;5.40;99.90
4183;DHT22;2105;52.300;9.182;2023-12-14T14:22:03;5.40;99.90
4183;DHT22;2105;52.300;9.182;2023-12-14T14:24:30;5.30;99.90
4183;DHT22;2105;52.300;9.182;2023-12-14T14:26:57;5.30;99.90
4183;DHT22;2105;52.300;9.182;2023-12-14T14:29:24;5.30;99.90
4183;DHT22;2105;52.300;9.182;2023-12-14T14:31:50;5.30;99.90
4183;DHT22;2105;52.300;9.182;2023-12-14T14:34:17;5.30;99.90
4183;DHT22;2105;52.300;9.182;2023-12-14T14:36:44;5.30;99.90
4183;DHT22;2105;52.300;9.182;2023-12-14T14:39:12;5.30;99.90
4183;DHT22;2105;52.300;9.182;2023-12-14T14:41:39;5.30;99.90
4183;DHT22;2105;52.300;9.182;2023-12-14T14:44:05;5.20;99.90
4183;DHT22;2105;52.300;9.182;2023-12-14T14:46:32;5.20;99.90
4183;DHT22;2105;52.300;9.182;2023-12-14T14:48:58;5.20;99.90
4183;DHT22;2105;52.300;9.182;2023-12-14T14:51:26;5.20;99.90
4183;DHT22;2105;52.300;9.182;2023-12-14T14:53:55;5.10;99.90
4183;DHT22;2105;52.300;9.182;2023-12-14T14:56:23;5.10;99.90
4183;DHT22;2105;52.300;9.182;2023-12-14T14:58:49;5.10;99.90
4183;DHT22;2105;52.300;9.182;2023-12-14T15:01:16;5.10;99.90
4183;DHT22;2105;52.300;9.182;2023-12-14T15:03:44;5.00;99.90
4183;DHT22;2105;52.300;9.182;2023-12-14T15:06:11;5.00;99.90
4183;DHT22;2105;52.300;9.182;2023-12-14T15:08:37;5.00;99.90
4183;DHT22;2105;52.300;9.182;2023-12-14T15:11:04;5.00;99.90
4183;DHT22;2105;52.300;9.182;2023-12-14T15:13:35;5.10;99.90
4183;DHT22;2105;52.300;9.182;2023-12-14T15:16:01;5.00;99.90
4183;DHT22;2105;52.300;9.182;2023-12-14T15:18:28;4.90;99.90
4183;DHT22;2105;52.300;9.182;2023-12-14T15:20:55;5.00;99.90
4183;DHT22;2105;52.300;9.182;2023-12-14T15:23:21;4.90;99.90
4183;DHT22;2105;52.300;9.182;2023-12-14T15:25:48;4.90;99.90
4183;DHT22;2105;52.300;9.182;2023-12-14T15:28:14;4.90;99.90
4183;DHT22;2105;52.300;9.182;2023-12-14T15:30:43;4.80;99.90
4183;DHT22;2105;52.300;9.182;2023-12-14T15:33:09;4.90;99.90
4183;DHT22;2105;52.300;9.182;2023-12-14T15:35:36;4.80;99.90
4183;DHT22;2105;52.300;9.182;2023-12-14T15:38:03;4.90;99.90
4183;DHT22;2105;52.300;9.182;2023-12-14T15:40:29;4.80;99.90
4183;DHT22;2105;52.300;9.182;2023-12-14T15:42:56;4.80;99.90
4183;DHT22;2105;52.300;9.182;2023-12-14T15:45:22;4.80;99.90
4183;DHT22;2105;52.300;9.182;2023-12-14T15:47:50;4.80;99.90
4183;DHT22;2105;52.300;9.182;2023-12-14T15:50:17;4.80;99.90
4183;DHT22;2105;52.300;9.182;2023-12-14T15:52:44;4.80;99.90
4183;DHT22;2105;52.300;9.182;2023-12-14T15:55:11;4.70;99.90
4183;DHT22;2105;52.300;9.182;2023-12-14T15:57:38;4.70;99.90
4183;DHT22;2105;52.300;9.182;2023-12-14T16:00:06;4.60;99.90
4183;DHT22;2105;52.300;9.182;2023-12-14T16:02:34;4.50;99.90
4183;DHT22;2105;52.300;9.182;2023-12-14T16:05:03;4.60;99.90
4183;DHT22;2105;52.300;9.182;2023-12-14T16:07:30;4.60;99.90
4183;DHT22;2105;52.300;9.182;2023-12-14T16:09:56;4.60;99.90
4183;DHT22;2105;52.300;9.182;2023-12-14T16:12:24;4.60;99.90
4183;DHT22;2105;52.300;9.182;2023-12-14T16:14:50;4.70;99.90
4183;DHT22;2105;52.300;9.182;2023-12-14T16:17:18;4.70;99.90